Terminal Aerodrome Forecast
Issued by NWS Milwaukee/Sullivan, WI

Home | Current Version | Previous Version | Text Only | Print | Product List | Glossary On
Versions: 1 2 3 4 5 6 7 8 9 10 11 12 13 14 15 16 17 18 19 20 21 22 23 24 25 26 27 28 29 30 31 32 33 34 35 36 37 38 39 40 41 42 43 44 45 46 47 48 49 50
000
FTUS43 KMKX 062146 AAC
TAFMKE
TAF AMD
KMKE 062146Z 0622/0724 06006KT 6SM HZ FEW005 SCT250
     FM070100 10007KT 3SM BR BKN005
     FM070500 10004KT 1/2SM FG BKN005
     FM070800 16004KT 1/2SM FG OVC003 WS015/20035KT
     FM071300 18008KT 1SM BR OVC003 WS015/20035KT
     FM071600 18012G20KT P6SM FEW005 SCT250
     FM071900 19014G23KT P6SM SCT250=

USA.gov is the U.S. government's official web portal to all federal, state and local government web resources and services.